Terminal Aerodrome Forecast
Issued by NWS

Home | Current Version | Previous Version | Text Only | Print | Product List | Glossary On
Versions: 1 2 3 4 5 6 7 8 9 10 11 12 13 14 15 16 17 18
000
FTUS44 KLZK 021800 CCA
TAFLLQ
TAF COR
KLLQ 021800Z 0218/0318 24008KT P6SM VCTS SCT015 OVC040CB
      TEMPO 0218/0222 VRB12KT 2SM TSRA BR BKN015CB
     FM022200 21008KT P6SM VCTS SCT025 BKN050CB
     FM030100 17004KT P6SM SCT120 BKN250
     FM030900 18005KT 5SM BR BKN015
     FM031400 19006KT P6SM BKN025 BKN040=

USA.gov is the U.S. government's official web portal to all federal, state and local government web resources and services.